Time;durP1;ratioP1;P1;durP2;ratioP2;P2;SDS_P1;SDS_P2;PMS_P1;PMS_P2;Temp;Humidity;BMP_temperature;BMP_pressure;BME280_temperature;BME280_humidity;BME280_pressure;Samples;Min_cycle;Max_cycle;Signal;HPM_P1;HPM_P2
2023/01/02 00:01:14;;;;;;;7.83;5.60;;;12.70;99.90;;;;;;5012475;28;20184;-67
2023/01/02 00:03:40;;;;;;;5.10;4.60;;;12.80;99.90;;;;;;5013131;28;20176;-66
2023/01/02 00:06:06;;;;;;;6.20;5.63;;;12.80;99.90;;;;;;5012672;28;20258;-67
2023/01/02 00:08:32;;;;;;;8.03;5.93;;;12.80;99.90;;;;;;5012941;28;20176;-67
2023/01/02 00:10:58;;;;;;;5.63;5.13;;;12.90;99.90;;;;;;5012512;28;20176;-67
2023/01/02 00:13:24;;;;;;;5.17;4.60;;;13.00;99.90;;;;;;5012963;28;20525;-67
2023/01/02 00:15:49;;;;;;;5.73;4.93;;;13.00;99.90;;;;;;5012472;28;20728;-67
2023/01/02 00:18:15;;;;;;;5.37;4.97;;;13.10;99.90;;;;;;5012830;28;20204;-67
2023/01/02 00:20:40;;;;;;;6.37;5.97;;;13.00;99.90;;;;;;5012347;28;20540;-67
2023/01/02 00:23:06;;;;;;;9.03;5.30;;;13.00;99.90;;;;;;4993000;28;20177;-66
2023/01/02 00:25:33;;;;;;;6.10;5.43;;;12.90;99.90;;;;;;4993158;28;20430;-66
2023/01/02 00:28:00;;;;;;;5.27;4.77;;;13.00;99.90;;;;;;5011432;28;20188;-67
2023/01/02 00:30:25;;;;;;;7.13;5.30;;;13.00;99.90;;;;;;5012308;28;20203;-67
2023/01/02 00:32:51;;;;;;;5.60;5.10;;;13.00;99.90;;;;;;5012314;28;20192;-67
2023/01/02 00:35:17;;;;;;;5.50;5.00;;;13.10;99.90;;;;;;5012404;28;20211;-66
2023/01/02 00:37:42;;;;;;;4.97;4.67;;;13.10;99.90;;;;;;5012361;28;20180;-65
2023/01/02 00:40:12;;;;;;;4.93;4.63;;;13.10;99.90;;;;;;5012116;28;20508;-65
2023/01/02 00:42:41;;;;;;;5.17;4.80;;;13.20;99.90;;;;;;5012365;28;20184;-66
2023/01/02 00:45:08;;;;;;;5.97;5.03;;;13.20;99.90;;;;;;5012095;28;20302;-66
2023/01/02 00:47:34;;;;;;;5.07;4.00;;;13.20;99.90;;;;;;5010956;28;20190;-66
2023/01/02 00:49:59;;;;;;;5.80;5.27;;;13.20;99.90;;;;;;5011646;28;20184;-66
2023/01/02 00:52:25;;;;;;;5.33;4.83;;;13.30;99.90;;;;;;5012224;28;20187;-66
2023/01/02 00:54:51;;;;;;;6.77;5.73;;;13.30;99.90;;;;;;5011905;28;20253;-66
2023/01/02 00:57:16;;;;;;;5.80;5.30;;;13.40;99.90;;;;;;5012167;28;20168;-67
2023/01/02 00:59:42;;;;;;;5.37;4.90;;;13.40;99.90;;;;;;5011797;28;20570;-66
2023/01/02 01:02:08;;;;;;;5.73;5.17;;;13.50;99.90;;;;;;5012006;28;20242;-66
2023/01/02 01:04:34;;;;;;;4.90;4.50;;;13.50;99.90;;;;;;5011676;28;20224;-66
2023/01/02 01:07:00;;;;;;;9.20;5.13;;;13.60;99.90;;;;;;5012127;28;20176;-65
2023/01/02 01:09:26;;;;;;;5.77;5.37;;;13.60;99.90;;;;;;5011681;28;20187;-66
2023/01/02 01:11:51;;;;;;;5.13;4.73;;;13.70;99.90;;;;;;5012060;28;20176;-66
2023/01/02 01:14:17;;;;;;;9.10;6.17;;;13.70;99.90;;;;;;5011602;28;20568;-67
2023/01/02 01:16:43;;;;;;;4.40;4.20;;;13.70;99.90;;;;;;5012039;28;20214;-66
2023/01/02 01:19:09;;;;;;;5.37;4.97;;;13.70;99.90;;;;;;5011732;28;20798;-67
2023/01/02 01:21:34;;;;;;;5.83;5.27;;;13.80;99.90;;;;;;5011506;28;20180;-66
2023/01/02 01:24:00;;;;;;;8.27;5.20;;;13.80;99.90;;;;;;5011812;28;20179;-66
2023/01/02 01:26:26;;;;;;;5.07;4.60;;;13.90;99.90;;;;;;5012088;28;20215;-66
2023/01/02 01:28:53;;;;;;;5.97;5.47;;;13.90;99.90;;;;;;5011592;28;20184;-66
2023/01/02 01:31:20;;;;;;;5.23;4.73;;;13.90;99.90;;;;;;5011398;28;20176;-65
2023/01/02 01:33:45;;;;;;;11.73;5.70;;;13.90;99.90;;;;;;5010885;28;20176;-66
2023/01/02 01:36:22;;;;;;;5.10;4.60;;;13.90;99.90;;;;;;5015476;28;20230;-66
2023/01/02 01:38:48;;;;;;;5.47;4.60;;;14.00;99.90;;;;;;5015672;28;20263;-66
2023/01/02 01:41:18;;;;;;;4.80;4.40;;;13.90;99.90;;;;;;5015549;28;20247;-65
2023/01/02 01:43:51;;;;;;;5.13;4.70;;;14.00;99.90;;;;;;5015610;28;20513;-65
2023/01/02 01:46:39;;;;;;;7.93;4.90;;;14.00;99.90;;;;;;5014392;28;20533;-65
2023/01/02 01:49:29;;;;;;;4.33;4.13;;;14.00;99.90;;;;;;5015248;28;20176;-65
2023/01/02 01:52:06;;;;;;;7.27;5.47;;;14.00;99.90;;;;;;5015865;28;20168;-66
2023/01/02 01:54:37;;;;;;;6.43;4.80;;;14.10;99.90;;;;;;5015216;28;20575;-66
2023/01/02 01:57:32;;;;;;;6.00;4.50;;;14.10;99.90;;;;;;5015516;28;20179;-66
2023/01/02 02:00:00;;;;;;;5.03;4.73;;;14.10;99.90;;;;;;5014513;28;20196;-65
2023/01/02 02:02:27;;;;;;;5.80;5.23;;;14.00;99.90;;;;;;5015281;28;20568;-66
2023/01/02 02:04:55;;;;;;;7.27;5.17;;;14.00;99.90;;;;;;5015156;28;20302;-66
2023/01/02 02:07:20;;;;;;;5.23;4.93;;;14.00;99.90;;;;;;5015407;28;20168;-66
2023/01/02 02:09:55;;;;;;;5.27;4.60;;;14.00;99.90;;;;;;5014846;28;20176;-66
2023/01/02 02:12:21;;;;;;;11.17;4.80;;;14.00;99.90;;;;;;5015173;28;20171;-66
2023/01/02 02:14:47;;;;;;;5.00;4.60;;;14.00;99.90;;;;;;5014692;28;20214;-66
2023/01/02 02:17:43;;;;;;;5.30;4.43;;;14.00;99.90;;;;;;5015178;28;20255;-66
2023/01/02 02:20:29;;;;;;;5.13;4.83;;;14.00;99.90;;;;;;5014244;28;20657;-65
2023/01/02 02:23:16;;;;;;;5.27;4.97;;;14.00;99.90;;;;;;5014918;28;20180;-66
2023/01/02 02:25:58;;;;;;;4.83;4.27;;;14.00;99.90;;;;;;5012319;28;20203;-67
2023/01/02 02:28:49;;;;;;;6.27;4.47;;;14.00;99.90;;;;;;5013463;28;20184;-66
2023/01/02 02:31:33;;;;;;;5.37;4.90;;;14.00;99.90;;;;;;5014464;28;20207;-65
2023/01/02 02:34:26;;;;;;;5.87;4.77;;;14.00;99.90;;;;;;5014448;28;20540;-65
2023/01/02 02:37:06;;;;;;;5.90;5.20;;;13.90;99.90;;;;;;5014905;28;20171;-66
2023/01/02 02:39:44;;;;;;;5.63;4.37;;;13.90;99.90;;;;;;5014193;28;20211;-66
2023/01/02 02:42:35;;;;;;;7.20;4.93;;;13.90;99.90;;;;;;5014769;28;20168;-66
2023/01/02 02:45:06;;;;;;;5.33;4.77;;;13.90;99.90;;;;;;4995036;28;20675;-65
2023/01/02 02:48:12;;;;;;;5.07;4.73;;;13.90;99.90;;;;;;5006335;28;20599;-66
2023/01/02 02:50:45;;;;;;;5.30;4.80;;;13.80;99.90;;;;;;5011875;28;20180;-65
2023/01/02 02:53:22;;;;;;;5.73;4.13;;;13.70;99.90;;;;;;5013926;28;20214;-64
2023/01/02 02:55:52;;;;;;;4.37;4.07;;;13.60;99.90;;;;;;5014464;28;20223;-65
2023/01/02 02:58:19;;;;;;;5.50;5.17;;;13.60;99.90;;;;;;5014089;28;20208;-65
2023/01/02 03:00:45;;;;;;;4.83;4.53;;;13.50;99.90;;;;;;5014105;28;20176;-65
2023/01/02 03:03:21;;;;;;;8.30;4.53;;;13.50;99.90;;;;;;5014121;28;20187;-66
2023/01/02 03:06:08;;;;;;;6.47;5.23;;;13.50;99.90;;;;;;5014165;28;20706;-65
2023/01/02 03:08:55;;;;;;;4.70;4.40;;;13.50;99.90;;;;;;5012815;28;20176;-66
2023/01/02 03:11:27;;;;;;;8.77;5.03;;;13.50;99.90;;;;;;5014094;28;20389;-65
2023/01/02 03:14:05;;;;;;;4.13;3.87;;;13.60;99.90;;;;;;5014307;28;20184;-66
2023/01/02 03:16:38;;;;;;;4.97;4.50;;;13.60;99.90;;;;;;5014175;28;20184;-66
2023/01/02 03:19:22;;;;;;;4.60;4.20;;;13.60;99.90;;;;;;5013957;28;20176;-65
2023/01/02 03:22:06;;;;;;;6.53;4.70;;;13.70;94.70;;;;;;5013222;28;20187;-66
2023/01/02 03:24:33;;;;;;;6.63;4.33;;;13.70;86.10;;;;;;5013707;28;20208;-66
2023/01/02 03:27:03;;;;;;;5.03;4.63;;;13.80;59.10;;;;;;5013675;28;20191;-65
2023/01/02 03:29:39;;;;;;;6.23;4.47;;;13.80;56.40;;;;;;5013537;28;20219;-66
2023/01/02 03:32:11;;;;;;;5.03;4.73;;;13.80;50.50;;;;;;5013777;28;20267;-65
2023/01/02 03:34:40;;;;;;;6.80;4.87;;;13.90;42.90;;;;;;5013724;28;20265;-65
2023/01/02 03:37:13;;;;;;;5.40;4.83;;;13.90;39.20;;;;;;5013501;28;20172;-65
2023/01/02 03:39:53;;;;;;;4.73;4.47;;;13.90;50.20;;;;;;5013518;28;20506;-65
2023/01/02 03:42:27;;;;;;;5.17;4.80;;;13.90;36.00;;;;;;4993954;28;20169;-65
2023/01/02 03:45:23;;;;;;;4.80;4.50;;;13.90;38.70;;;;;;4995210;28;20292;-65
2023/01/02 03:48:14;;;;;;;5.07;4.53;;;13.90;36.50;;;;;;5013255;28;20219;-64
2023/01/02 03:50:53;;;;;;;5.03;4.53;;;13.80;43.10;;;;;;5012729;28;20188;-65
2023/01/02 03:53:20;;;;;;;6.93;4.43;;;13.90;31.50;;;;;;5013405;28;20172;-65
2023/01/02 03:56:10;;;;;;;5.43;4.97;;;13.80;33.80;;;;;;5013046;28;20291;-65
2023/01/02 03:58:49;;;;;;;7.77;4.30;;;13.90;35.10;;;;;;5012841;28;20192;-64
2023/01/02 04:01:36;;;;;;;4.40;4.10;;;13.90;44.70;;;;;;5012704;28;20180;-66
2023/01/02 04:04:19;;;;;;;5.27;4.80;;;13.80;57.70;;;;;;5013258;28;20657;-65
2023/01/02 04:06:54;;;;;;;4.77;4.40;;;13.80;55.20;;;;;;5012919;28;20610;-65
2023/01/02 04:09:24;;;;;;;5.73;4.63;;;13.70;80.80;;;;;;5013060;28;20172;-65
2023/01/02 04:11:59;;;;;;;5.13;4.23;;;13.60;99.30;;;;;;5012814;28;20176;-65
2023/01/02 04:14:33;;;;;;;4.70;4.40;;;13.50;99.90;;;;;;5012716;28;20200;-65
2023/01/02 04:17:02;;;;;;;4.70;4.40;;;13.30;99.90;;;;;;5012795;28;20646;-65
2023/01/02 04:20:01;;;;;;;9.13;4.80;;;13.20;99.90;;;;;;5012618;28;20168;-65
2023/01/02 04:22:30;;;;;;;5.63;5.23;;;13.20;99.90;;;;;;5011030;28;20723;-65
2023/01/02 04:25:09;;;;;;;5.17;4.67;;;13.10;99.90;;;;;;5012605;28;20246;-65
2023/01/02 04:27:58;;;;;;;9.83;5.13;;;13.00;99.90;;;;;;5012560;28;20191;-65
2023/01/02 04:30:25;;;;;;;5.10;4.60;;;13.00;99.90;;;;;;4992521;28;20196;-64
2023/01/02 04:32:52;;;;;;;5.40;5.00;;;13.10;99.90;;;;;;4993231;28;20231;-65
2023/01/02 04:35:21;;;;;;;5.47;4.70;;;13.10;99.90;;;;;;5011686;28;20216;-65
2023/01/02 04:37:47;;;;;;;5.40;4.80;;;13.20;99.90;;;;;;5012688;28;20172;-65
2023/01/02 04:40:25;;;;;;;4.53;4.23;;;13.30;99.90;;;;;;5011742;28;20226;-65
2023/01/02 04:42:51;;;;;;;4.30;3.90;;;13.40;99.90;;;;;;5012627;28;20179;-66
2023/01/02 04:45:17;;;;;;;4.73;4.40;;;13.50;99.90;;;;;;5012522;28;20203;-65
2023/01/02 04:47:43;;;;;;;10.93;4.13;;;13.60;99.20;;;;;;5012279;28;20230;-65
2023/01/02 04:50:09;;;;;;;5.43;4.60;;;13.60;99.20;;;;;;5012217;28;20172;-66
2023/01/02 04:52:35;;;;;;;4.70;4.40;;;13.70;94.50;;;;;;5012404;28;20314;-65
2023/01/02 04:55:01;;;;;;;4.87;4.57;;;13.80;94.90;;;;;;5012496;28;20287;-65
2023/01/02 04:57:26;;;;;;;4.57;4.27;;;13.80;89.80;;;;;;5012298;28;20610;-66
2023/01/02 04:59:52;;;;;;;6.00;5.40;;;13.80;92.80;;;;;;5012368;28;20184;-66
2023/01/02 05:02:17;;;;;;;6.07;4.70;;;13.70;95.30;;;;;;5012032;28;20199;-65
2023/01/02 05:04:43;;;;;;;4.97;4.23;;;13.70;60.90;;;;;;5012289;28;20275;-65
2023/01/02 05:07:09;;;;;;;4.83;4.43;;;13.80;82.80;;;;;;5012182;28;20650;-65
2023/01/02 05:09:34;;;;;;;4.73;4.33;;;13.70;84.50;;;;;;5011093;28;20187;-66
2023/01/02 05:12:00;;;;;;;4.67;4.37;;;13.70;99.90;;;;;;5012005;28;20694;-65
2023/01/02 05:14:26;;;;;;;5.43;4.97;;;13.70;99.80;;;;;;5012014;28;20227;-65
2023/01/02 05:16:51;;;;;;;5.07;4.67;;;13.70;99.90;;;;;;5012012;28;20187;-64
2023/01/02 05:19:17;;;;;;;4.67;4.37;;;13.70;99.90;;;;;;5011730;28;20173;-65
2023/01/02 05:24:26;;;;;;;4.93;4.27;;;13.80;99.90;;;;;;5011801;28;20295;-65
2023/01/02 05:26:55;;;;;;;8.67;4.67;;;13.80;97.50;;;;;;5011898;28;20254;-66
2023/01/02 05:29:21;;;;;;;4.13;3.93;;;13.80;99.90;;;;;;5011682;28;20217;-66
2023/01/02 05:31:46;;;;;;;5.60;4.30;;;13.80;99.90;;;;;;5011789;28;20646;-66
2023/01/02 05:34:13;;;;;;;4.00;3.80;;;13.70;99.90;;;;;;5011891;28;20176;-66
2023/01/02 05:36:40;;;;;;;4.90;4.50;;;13.70;99.90;;;;;;5011636;28;20180;-65
2023/01/02 05:39:13;;;;;;;3.97;3.77;;;13.80;99.90;;;;;;5011718;28;20258;-66
2023/01/02 05:41:39;;;;;;;5.40;5.03;;;13.80;99.90;;;;;;5013873;28;20168;-67
2023/01/02 05:44:07;;;;;;;4.93;4.63;;;13.90;99.90;;;;;;5014819;28;20179;-66
2023/01/02 05:46:33;;;;;;;5.20;4.90;;;13.80;99.90;;;;;;5015860;28;20164;-66
2023/01/02 05:48:58;;;;;;;5.37;4.97;;;13.80;99.90;;;;;;4992806;28;20184;-66
2023/01/02 05:51:24;;;;;;;12.53;4.50;;;13.80;99.90;;;;;;4991793;28;20169;-66
2023/01/02 05:53:53;;;;;;;5.10;4.80;;;13.80;99.90;;;;;;5010331;28;20669;-66
2023/01/02 05:56:20;;;;;;;4.53;4.13;;;13.80;99.90;;;;;;5011330;28;20552;-66
2023/01/02 05:58:48;;;;;;;5.37;4.47;;;13.70;99.90;;;;;;5011352;28;20176;-66
2023/01/02 06:01:22;;;;;;;7.33;5.53;;;13.60;99.90;;;;;;5011224;28;20173;-66
2023/01/02 06:03:50;;;;;;;5.80;4.70;;;13.70;99.90;;;;;;5011391;28;20176;-65
2023/01/02 06:06:18;;;;;;;4.87;4.57;;;13.70;99.90;;;;;;5011251;28;20200;-66
2023/01/02 06:08:44;;;;;;;4.67;4.20;;;13.70;99.90;;;;;;5011333;28;20661;-65
2023/01/02 06:11:09;;;;;;;5.23;4.73;;;13.70;99.90;;;;;;5011261;28;20183;-66
2023/01/02 06:13:36;;;;;;;4.90;4.37;;;13.80;99.90;;;;;;5011282;28;20648;-66
2023/01/02 06:16:03;;;;;;;6.10;5.50;;;13.80;99.90;;;;;;5011414;28;20228;-65
2023/01/02 06:18:31;;;;;;;5.07;4.73;;;13.80;99.90;;;;;;5010909;28;20176;-67
2023/01/02 06:20:59;;;;;;;5.07;4.70;;;13.90;99.90;;;;;;5013542;28;20665;-66
2023/01/02 06:23:25;;;;;;;6.57;4.50;;;13.80;99.90;;;;;;5014826;28;20188;-65
2023/01/02 06:25:50;;;;;;;4.60;4.30;;;13.90;99.90;;;;;;5015007;28;20223;-65
2023/01/02 06:28:16;;;;;;;4.30;4.10;;;13.90;99.90;;;;;;5014486;28;20184;-65
2023/01/02 06:30:42;;;;;;;4.37;3.97;;;13.90;99.90;;;;;;5014923;28;20654;-64
2023/01/02 06:33:07;;;;;;;4.57;4.27;;;13.90;99.90;;;;;;5015123;28;20254;-65
2023/01/02 06:35:33;;;;;;;4.97;4.57;;;13.90;99.90;;;;;;5014939;28;20208;-64
2023/01/02 06:37:58;;;;;;;4.57;4.27;;;13.90;99.90;;;;;;5015055;28;20246;-65
2023/01/02 06:40:24;;;;;;;4.43;4.13;;;13.90;99.90;;;;;;5014572;28;20172;-65
2023/01/02 06:42:50;;;;;;;10.83;4.93;;;13.90;99.90;;;;;;5014762;28;20183;-65
2023/01/02 06:45:15;;;;;;;4.50;4.20;;;13.90;99.90;;;;;;5015002;28;20192;-65
2023/01/02 06:47:41;;;;;;;4.40;4.10;;;13.80;99.90;;;;;;5014642;28;20271;-65
2023/01/02 06:50:07;;;;;;;10.77;4.33;;;13.80;99.90;;;;;;5014318;28;20585;-64
2023/01/02 06:52:32;;;;;;;4.77;4.47;;;13.80;99.90;;;;;;5014418;28;20397;-64
2023/01/02 06:54:58;;;;;;;4.83;4.20;;;13.80;99.90;;;;;;5014513;28;20211;-64
2023/01/02 06:57:24;;;;;;;5.17;4.00;;;13.70;99.90;;;;;;5014714;28;20543;-66
2023/01/02 06:59:49;;;;;;;5.40;5.00;;;13.70;99.90;;;;;;5014313;28;20175;-64
2023/01/02 07:02:15;;;;;;;4.87;4.43;;;13.60;99.90;;;;;;5014358;28;20247;-64
2023/01/02 07:04:40;;;;;;;5.73;5.00;;;13.60;99.90;;;;;;5015030;28;20192;-65
2023/01/02 07:07:07;;;;;;;4.50;4.20;;;13.60;99.90;;;;;;5014548;28;20184;-66
2023/01/02 07:09:33;;;;;;;4.70;4.40;;;13.50;99.90;;;;;;5014122;28;20543;-65
2023/01/02 07:11:59;;;;;;;4.80;4.30;;;13.40;99.90;;;;;;5014159;28;20182;-66
2023/01/02 07:14:25;;;;;;;5.43;5.00;;;13.30;99.90;;;;;;5013884;28;20568;-65
2023/01/02 07:16:51;;;;;;;5.40;5.10;;;13.20;99.90;;;;;;5014269;28;20180;-65
2023/01/02 07:19:16;;;;;;;5.13;4.63;;;13.10;99.90;;;;;;5013771;28;20251;-66
2023/01/02 07:21:42;;;;;;;4.80;4.50;;;13.00;99.90;;;;;;5013967;28;20536;-66
2023/01/02 07:24:14;;;;;;;4.97;4.60;;;13.00;99.90;;;;;;5013957;28;20172;-65
2023/01/02 07:26:40;;;;;;;7.00;4.73;;;12.90;99.90;;;;;;5014086;28;20180;-65
2023/01/02 07:29:06;;;;;;;4.60;4.30;;;12.80;99.90;;;;;;5013816;28;20204;-67
2023/01/02 07:31:32;;;;;;;5.40;4.90;;;12.70;99.90;;;;;;5012545;28;20191;-64
2023/01/02 07:33:57;;;;;;;6.13;5.23;;;12.60;99.90;;;;;;5012783;28;20178;-64
2023/01/02 07:36:24;;;;;;;4.90;4.60;;;12.50;99.90;;;;;;5013304;28;20285;-65
2023/01/02 07:38:51;;;;;;;5.73;4.63;;;12.50;99.90;;;;;;4995848;28;20177;-65
2023/01/02 07:41:19;;;;;;;7.53;4.57;;;12.40;99.90;;;;;;4995759;28;20503;-65
2023/01/02 07:43:45;;;;;;;5.57;5.17;;;12.40;99.90;;;;;;5013525;28;20179;-65
2023/01/02 07:46:13;;;;;;;5.13;4.73;;;12.30;99.90;;;;;;5013448;28;20196;-66
2023/01/02 07:48:39;;;;;;;5.50;5.10;;;12.30;99.90;;;;;;5013624;28;20177;-66
2023/01/02 07:51:06;;;;;;;5.93;5.53;;;12.20;99.90;;;;;;5013506;28;20585;-66
2023/01/02 07:53:32;;;;;;;5.27;4.97;;;12.20;99.90;;;;;;5013246;28;20188;-67
2023/01/02 07:55:59;;;;;;;5.17;4.77;;;12.10;99.90;;;;;;5013610;28;20223;-65
2023/01/02 07:58:25;;;;;;;5.27;4.77;;;12.10;99.90;;;;;;5012084;28;20181;-66
2023/01/02 08:00:51;;;;;;;5.07;4.57;;;12.00;99.90;;;;;;5013142;28;20188;-65
2023/01/02 08:03:16;;;;;;;5.03;4.73;;;12.00;99.90;;;;;;5013522;28;20179;-66
2023/01/02 08:05:42;;;;;;;7.90;5.07;;;12.00;99.90;;;;;;5013299;28;20200;-66
2023/01/02 08:08:08;;;;;;;6.83;5.33;;;11.90;99.90;;;;;;5013754;28;20176;-66
2023/01/02 08:10:36;;;;;;;5.83;4.80;;;11.90;99.90;;;;;;5012425;28;20200;-66
2023/01/02 08:13:02;;;;;;;6.27;4.20;;;11.90;99.90;;;;;;5013379;28;20176;-65
2023/01/02 08:15:28;;;;;;;4.70;4.40;;;11.90;99.90;;;;;;5013182;28;20203;-66
2023/01/02 08:17:55;;;;;;;4.80;4.50;;;11.90;99.90;;;;;;5008912;28;20523;-65
2023/01/02 08:20:21;;;;;;;5.63;4.87;;;11.80;99.90;;;;;;5012469;28;20172;-67
2023/01/02 08:22:47;;;;;;;4.73;4.47;;;11.80;99.90;;;;;;5013086;28;20172;-66
2023/01/02 08:25:12;;;;;;;4.40;4.10;;;11.80;99.90;;;;;;5012608;28;20239;-66
2023/01/02 08:27:38;;;;;;;4.80;4.43;;;11.80;99.90;;;;;;5012745;28;20183;-66
2023/01/02 08:30:04;;;;;;;5.50;5.00;;;11.80;99.90;;;;;;5012137;28;20274;-66
2023/01/02 08:32:30;;;;;;;5.00;4.47;;;11.80;99.90;;;;;;5012401;28;20211;-65
2023/01/02 08:34:55;;;;;;;4.93;4.47;;;11.80;99.90;;;;;;5012138;28;20243;-66
2023/01/02 08:37:21;;;;;;;4.37;4.10;;;11.80;99.90;;;;;;5010294;28;20693;-66
2023/01/02 08:39:46;;;;;;;8.67;4.50;;;11.80;99.90;;;;;;4997204;28;20180;-66
2023/01/02 08:42:12;;;;;;;4.93;4.50;;;11.80;99.90;;;;;;5012251;28;20180;-66
2023/01/02 08:44:37;;;;;;;4.97;4.67;;;11.80;99.90;;;;;;5012408;28;20200;-66
2023/01/02 08:47:04;;;;;;;9.67;5.83;;;11.80;99.90;;;;;;5012623;28;20502;-66
2023/01/02 08:49:29;;;;;;;4.50;4.30;;;11.80;99.90;;;;;;5012238;28;20594;-66
2023/01/02 08:51:55;;;;;;;5.80;4.60;;;11.80;99.90;;;;;;5009118;28;20175;-66
2023/01/02 08:54:21;;;;;;;5.53;4.50;;;11.90;99.90;;;;;;5005695;28;20325;-66
2023/01/02 08:56:47;;;;;;;4.27;4.07;;;11.80;99.90;;;;;;5012918;28;20161;-66
2023/01/02 08:59:13;;;;;;;5.23;4.73;;;11.80;99.90;;;;;;5015989;28;20179;-66
2023/01/02 09:01:39;;;;;;;5.10;4.80;;;11.80;99.90;;;;;;5020557;28;20325;-66
2023/01/02 09:04:06;;;;;;;5.23;4.97;;;11.80;99.90;;;;;;5021451;28;20235;-66
2023/01/02 09:06:33;;;;;;;5.33;4.90;;;11.80;99.90;;;;;;5012258;28;20215;-66
2023/01/02 09:08:59;;;;;;;5.40;4.90;;;11.80;99.90;;;;;;5012031;28;20533;-66
2023/01/02 09:11:28;;;;;;;5.10;4.57;;;11.80;99.90;;;;;;5011793;28;20168;-66
2023/01/02 09:13:55;;;;;;;5.63;5.20;;;11.80;99.90;;;;;;5011841;28;20271;-65
2023/01/02 09:16:21;;;;;;;6.77;4.87;;;11.90;99.90;;;;;;5011962;28;20207;-65
2023/01/02 09:18:47;;;;;;;5.00;4.70;;;11.80;99.90;;;;;;5007849;28;20554;-67
2023/01/02 09:21:13;;;;;;;4.77;4.47;;;11.80;99.90;;;;;;5011066;28;20168;-67
2023/01/02 09:23:38;;;;;;;4.60;4.40;;;11.70;99.90;;;;;;5011813;28;20202;-66
2023/01/02 09:26:06;;;;;;;4.40;4.20;;;11.70;99.90;;;;;;5011968;28;20223;-64
2023/01/02 09:28:33;;;;;;;4.27;4.07;;;11.70;99.90;;;;;;5011236;28;20184;-64
2023/01/02 09:31:02;;;;;;;4.60;4.40;;;11.70;99.90;;;;;;5012138;28;20229;-64
2023/01/02 09:33:28;;;;;;;4.57;4.33;;;11.60;99.90;;;;;;5012356;28;20668;-65
2023/01/02 09:35:53;;;;;;;4.13;3.83;;;11.70;99.90;;;;;;5012463;28;20212;-65
2023/01/02 09:38:19;;;;;;;3.70;3.60;;;11.70;99.90;;;;;;5011958;28;20544;-65
2023/01/02 09:40:52;;;;;;;4.47;4.27;;;11.60;99.90;;;;;;5013046;28;20180;-65
2023/01/02 09:43:47;;;;;;;4.90;4.60;;;11.50;99.90;;;;;;5012504;28;20176;-65
2023/01/02 09:46:30;;;;;;;4.97;4.67;;;11.50;99.90;;;;;;5013300;28;20204;-65
2023/01/02 09:48:58;;;;;;;4.97;4.67;;;11.40;99.90;;;;;;4998429;28;20188;-64
2023/01/02 09:51:25;;;;;;;4.03;3.83;;;11.30;99.90;;;;;;5013732;28;20206;-64
2023/01/02 09:53:50;;;;;;;4.57;4.37;;;11.30;99.90;;;;;;5009969;28;20676;-65
2023/01/02 09:56:22;;;;;;;4.40;4.10;;;11.30;99.90;;;;;;5015159;28;20204;-64
2023/01/02 09:58:48;;;;;;;4.90;4.70;;;11.30;99.90;;;;;;5018442;28;20206;-64
2023/01/02 10:01:51;;;;;;;4.87;4.67;;;11.20;99.90;;;;;;5018201;28;20173;-64
2023/01/02 10:04:46;;;;;;;4.10;3.90;;;11.20;99.90;;;;;;4999145;28;20175;-65
2023/01/02 10:07:18;;;;;;;5.53;4.70;;;11.10;99.90;;;;;;4999283;28;20272;-64
2023/01/02 10:10:07;;;;;;;4.50;4.20;;;11.10;99.90;;;;;;5017870;28;20190;-64
2023/01/02 10:13:20;;;;;;;4.63;4.30;;;11.10;99.90;;;;;;5014831;28;20172;-65
2023/01/02 10:15:49;;;;;;;4.67;4.37;;;11.20;99.90;;;;;;5017529;28;20227;-65
2023/01/02 10:18:25;;;;;;;4.40;4.20;;;11.20;99.90;;;;;;5015458;28;20172;-65
2023/01/02 10:20:59;;;;;;;4.33;4.13;;;11.30;99.90;;;;;;5015977;28;20180;-65
2023/01/02 10:23:32;;;;;;;4.20;4.00;;;11.20;99.90;;;;;;5016901;28;20729;-65
2023/01/02 10:26:04;;;;;;;5.03;4.73;;;11.30;99.90;;;;;;5014037;28;20298;-65
2023/01/02 10:28:45;;;;;;;5.23;4.83;;;11.30;99.90;;;;;;5016386;28;20702;-65
2023/01/02 10:31:37;;;;;;;4.33;4.00;;;11.30;99.90;;;;;;5016487;28;20183;-65
2023/01/02 10:34:07;;;;;;;5.10;4.80;;;11.30;99.90;;;;;;5007991;28;20183;-65
2023/01/02 10:36:40;;;;;;;5.10;4.77;;;11.40;99.90;;;;;;5015186;28;20204;-65
2023/01/02 10:39:15;;;;;;;5.70;5.23;;;11.50;99.90;;;;;;5015142;28;20212;-65
2023/01/02 10:41:42;;;;;;;5.30;5.00;;;11.50;99.90;;;;;;5014813;28;20184;-65
2023/01/02 10:44:35;;;;;;;5.43;4.93;;;11.50;99.90;;;;;;5015063;28;20165;-66
2023/01/02 10:47:37;;;;;;;5.30;4.67;;;11.50;99.90;;;;;;5014182;28;20196;-66
2023/01/02 10:50:05;;;;;;;4.70;4.30;;;11.50;99.90;;;;;;5014616;28;20172;-65
2023/01/02 10:52:44;;;;;;;5.20;4.90;;;11.60;99.90;;;;;;5014381;28;20211;-65
2023/01/02 10:55:10;;;;;;;7.80;4.70;;;11.60;99.90;;;;;;5014641;28;20210;-66
2023/01/02 10:57:45;;;;;;;5.40;5.10;;;11.70;99.90;;;;;;5013057;28;20188;-66
2023/01/02 11:00:17;;;;;;;4.67;4.47;;;11.80;99.90;;;;;;5014513;28;20195;-65
2023/01/02 11:02:48;;;;;;;5.90;5.27;;;11.80;99.90;;;;;;5014066;28;20642;-65
2023/01/02 11:05:26;;;;;;;6.03;5.53;;;11.80;99.90;;;;;;5014623;28;20622;-65
2023/01/02 11:07:53;;;;;;;6.20;5.70;;;11.90;99.90;;;;;;5013034;28;20190;-65
2023/01/02 11:10:37;;;;;;;5.70;5.30;;;11.90;99.90;;;;;;5014114;28;20176;-65
2023/01/02 11:13:08;;;;;;;6.13;5.40;;;12.00;99.90;;;;;;5014100;28;20176;-65
2023/01/02 11:15:35;;;;;;;6.20;5.80;;;12.00;99.90;;;;;;5014187;28;20222;-65
2023/01/02 11:18:09;;;;;;;5.67;5.37;;;12.00;99.90;;;;;;5014219;28;20595;-64
2023/01/02 11:20:36;;;;;;;5.67;5.27;;;11.90;99.90;;;;;;5013549;28;20560;-65
2023/01/02 11:23:03;;;;;;;6.60;6.03;;;11.80;99.90;;;;;;5017357;28;20189;-65
2023/01/02 11:25:40;;;;;;;5.90;5.50;;;11.60;99.90;;;;;;5016778;28;20220;-65
2023/01/02 11:28:14;;;;;;;6.63;6.07;;;11.50;99.90;;;;;;5016967;28;20211;-65
2023/01/02 11:30:44;;;;;;;6.50;6.00;;;11.40;99.90;;;;;;5013414;28;20200;-65
2023/01/02 11:33:13;;;;;;;6.73;5.43;;;11.30;99.90;;;;;;5015800;28;20175;-65
2023/01/02 11:35:56;;;;;;;5.20;4.80;;;11.30;99.90;;;;;;5016624;28;20230;-65
2023/01/02 11:38:39;;;;;;;5.70;5.30;;;11.30;99.90;;;;;;5016602;28;20176;-65
2023/01/02 11:41:08;;;;;;;6.33;5.80;;;11.30;99.90;;;;;;5004361;28;20181;-65
2023/01/02 11:43:48;;;;;;;6.63;6.00;;;11.30;99.90;;;;;;4995665;28;20593;-66
2023/01/02 11:46:27;;;;;;;5.90;5.43;;;11.40;99.90;;;;;;5007545;28;20246;-65
2023/01/02 11:48:58;;;;;;;6.20;5.70;;;11.40;99.90;;;;;;5016836;28;20171;-64
2023/01/02 11:51:24;;;;;;;5.07;4.67;;;11.50;99.90;;;;;;5013383;28;20181;-66
2023/01/02 11:53:52;;;;;;;5.50;5.10;;;11.50;99.90;;;;;;5015416;28;20658;-65
2023/01/02 11:56:35;;;;;;;5.10;4.80;;;11.50;99.90;;;;;;5016151;28;20235;-65
2023/01/02 11:59:25;;;;;;;5.50;5.20;;;11.60;99.90;;;;;;5015609;28;20176;-64
2023/01/02 12:02:11;;;;;;;5.73;5.33;;;11.70;99.90;;;;;;5013380;28;20178;-64
2023/01/02 12:04:37;;;;;;;5.43;4.93;;;11.80;99.90;;;;;;5013172;28;20196;-65
2023/01/02 12:07:24;;;;;;;5.77;5.37;;;11.90;99.90;;;;;;5013439;28;20259;-65
2023/01/02 12:10:08;;;;;;;5.50;5.10;;;12.00;99.90;;;;;;5012921;28;20263;-65
2023/01/02 12:13:01;;;;;;;5.60;5.13;;;12.00;99.90;;;;;;5013350;28;20172;-65
2023/01/02 12:15:45;;;;;;;5.87;5.43;;;12.20;99.90;;;;;;4993245;28;20236;-65
2023/01/02 12:18:41;;;;;;;5.13;4.80;;;12.30;99.90;;;;;;4997357;28;20176;-64
2023/01/02 12:21:23;;;;;;;5.30;5.00;;;12.30;99.90;;;;;;5012796;28;20176;-65
2023/01/02 12:24:24;;;;;;;5.37;4.97;;;12.30;99.90;;;;;;5012797;28;20211;-64
2023/01/02 12:26:58;;;;;;;5.20;4.90;;;12.30;99.90;;;;;;5012805;28;20186;-64
2023/01/02 12:29:43;;;;;;;5.10;4.80;;;12.20;99.90;;;;;;5012572;28;20171;-65
2023/01/02 12:32:23;;;;;;;4.70;4.50;;;12.20;99.90;;;;;;5014741;28;20172;-65
2023/01/02 12:35:07;;;;;;;4.90;4.67;;;12.30;99.90;;;;;;5013933;28;20743;-65
2023/01/02 12:38:00;;;;;;;4.80;4.60;;;12.30;99.90;;;;;;5012966;28;20180;-66
2023/01/02 12:40:51;;;;;;;5.47;4.97;;;12.30;99.90;;;;;;5012095;28;20183;-66
2023/01/02 12:43:49;;;;;;;4.70;4.50;;;12.30;99.90;;;;;;5012339;28;20654;-65
2023/01/02 12:46:54;;;;;;;4.77;4.47;;;12.40;99.90;;;;;;5005278;28;20204;-66
2023/01/02 12:49:42;;;;;;;5.03;4.73;;;12.40;99.90;;;;;;4991598;28;20257;-65
2023/01/02 12:52:27;;;;;;;5.50;5.20;;;12.40;99.90;;;;;;5012643;28;20180;-65
2023/01/02 12:55:01;;;;;;;4.57;4.10;;;12.40;99.90;;;;;;5012914;28;20200;-65
2023/01/02 12:57:43;;;;;;;5.00;4.60;;;12.40;99.90;;;;;;5014603;28;20552;-65
2023/01/02 13:00:34;;;;;;;5.57;4.90;;;12.50;99.90;;;;;;4993147;28;20192;-65
2023/01/02 13:03:21;;;;;;;4.80;4.50;;;12.50;99.90;;;;;;5009358;28;20218;-66
2023/01/02 13:05:52;;;;;;;5.23;4.93;;;12.60;99.90;;;;;;5011971;28;20200;-66
2023/01/02 13:08:25;;;;;;;4.80;4.50;;;12.60;99.90;;;;;;5011372;28;20547;-65
2023/01/02 13:10:52;;;;;;;5.40;5.10;;;12.50;99.90;;;;;;5008337;28;20171;-65
2023/01/02 13:13:20;;;;;;;5.00;4.70;;;12.40;99.90;;;;;;5011903;28;20184;-65